Time;durP1;ratioP1;P1;durP2;ratioP2;P2;SDS_P1;SDS_P2;PMS_P1;PMS_P2;Temp;Humidity;BMP_temperature;BMP_pressure;BME280_temperature;BME280_humidity;BME280_pressure;Samples;Min_cycle;Max_cycle;Signal;HPM_P1;HPM_P2
2023/05/16 00:01:29;;;;;;;25.63;2.90;;;8.30;99.90;;;;;;5064566;28;20126;-71
2023/05/16 00:03:55;;;;;;;20.05;2.83;;;8.20;99.90;;;;;;5072225;28;20063;-72
2023/05/16 00:06:22;;;;;;;10.63;2.10;;;8.20;99.90;;;;;;5070927;28;20116;-72
2023/05/16 00:08:48;;;;;;;17.52;2.83;;;8.00;99.90;;;;;;5070704;28;20068;-72
2023/05/16 00:11:16;;;;;;;16.83;3.17;;;8.20;99.90;;;;;;5071716;28;20051;-71
2023/05/16 00:13:41;;;;;;;20.70;2.67;;;8.30;99.90;;;;;;5067150;28;20045;-73
2023/05/16 00:16:07;;;;;;;15.70;2.13;;;8.10;99.90;;;;;;5071484;28;20103;-73
2023/05/16 00:18:36;;;;;;;17.40;2.20;;;8.10;99.90;;;;;;5067933;28;20056;-72
2023/05/16 00:21:03;;;;;;;18.75;2.75;;;8.10;99.90;;;;;;5071497;28;20109;-72
2023/05/16 00:23:29;;;;;;;20.15;2.45;;;8.00;99.90;;;;;;5071674;28;20053;-74
2023/05/16 00:25:55;;;;;;;22.08;2.38;;;8.00;99.90;;;;;;5071618;28;20047;-71
2023/05/16 00:28:21;;;;;;;18.52;2.85;;;8.10;99.90;;;;;;5071149;28;20398;-72
2023/05/16 00:30:47;;;;;;;17.63;2.08;;;8.00;99.90;;;;;;5071620;28;20040;-72
2023/05/16 00:33:12;;;;;;;15.50;1.92;;;7.90;99.90;;;;;;5071377;28;20044;-72
2023/05/16 00:35:38;;;;;;;15.15;1.90;;;7.90;99.90;;;;;;5071919;28;20048;-72
2023/05/16 00:38:04;;;;;;;14.48;2.42;;;7.90;99.90;;;;;;5071114;28;20041;-71
2023/05/16 00:40:30;;;;;;;17.45;1.95;;;7.90;99.90;;;;;;5069054;28;20135;-71
2023/05/16 00:42:55;;;;;;;21.30;2.63;;;7.80;99.90;;;;;;5069539;28;20040;-72
2023/05/16 00:45:21;;;;;;;15.25;2.45;;;7.80;99.90;;;;;;5071088;28;20632;-73
2023/05/16 00:47:47;;;;;;;16.98;2.35;;;7.80;99.90;;;;;;5069558;28;20045;-71
2023/05/16 00:50:12;;;;;;;13.82;1.85;;;7.70;99.90;;;;;;5052737;28;20054;-72
2023/05/16 00:52:42;;;;;;;15.27;2.10;;;7.70;99.90;;;;;;5069914;28;20058;-72
2023/05/16 00:55:09;;;;;;;18.25;2.00;;;7.70;99.90;;;;;;5070837;28;20777;-72
2023/05/16 00:57:36;;;;;;;22.42;2.20;;;7.60;99.90;;;;;;5070950;28;20490;-72
2023/05/16 01:00:09;;;;;;;17.40;2.17;;;7.60;99.90;;;;;;5069624;28;20059;-72
2023/05/16 01:02:36;;;;;;;15.18;2.25;;;7.60;99.90;;;;;;5063320;28;20044;-72
2023/05/16 01:05:07;;;;;;;20.23;2.75;;;7.60;99.90;;;;;;5062652;28;20156;-73
2023/05/16 01:07:34;;;;;;;15.85;1.80;;;7.50;99.90;;;;;;5070841;28;20052;-72
2023/05/16 01:10:00;;;;;;;16.02;2.25;;;7.50;99.90;;;;;;5069707;28;20064;-72
2023/05/16 01:12:42;;;;;;;22.58;2.42;;;7.50;99.90;;;;;;5070543;28;20036;-71
2023/05/16 01:15:12;;;;;;;16.13;1.80;;;7.50;99.90;;;;;;5069268;28;20060;-73
2023/05/16 01:17:49;;;;;;;9.48;1.92;;;7.50;99.90;;;;;;5071139;28;20126;-72
2023/05/16 01:20:43;;;;;;;15.73;2.67;;;7.50;99.90;;;;;;5069226;28;20125;-72
2023/05/16 01:23:42;;;;;;;13.98;2.65;;;7.50;99.90;;;;;;5070874;28;20052;-71
2023/05/16 01:26:25;;;;;;;11.77;2.13;;;7.50;99.90;;;;;;5066238;28;20052;-72
2023/05/16 01:28:52;;;;;;;14.68;1.90;;;7.50;99.90;;;;;;5063555;28;20040;-71
2023/05/16 01:31:18;;;;;;;13.88;2.78;;;8.10;99.90;;;;;;5070356;28;20047;-72
2023/05/16 01:33:44;;;;;;;16.30;2.08;;;7.40;99.90;;;;;;5069011;28;20160;-71
2023/05/16 01:36:29;;;;;;;14.02;1.80;;;7.40;99.90;;;;;;5069090;28;20678;-72
2023/05/16 01:39:33;;;;;;;12.50;2.35;;;7.40;99.90;;;;;;5067172;28;20044;-72
2023/05/16 01:42:08;;;;;;;17.52;2.17;;;7.50;99.90;;;;;;5068835;28;20059;-71
2023/05/16 01:44:36;;;;;;;;;;;7.40;99.90;;;;;;5070204;28;20117;-71
2023/05/16 01:47:11;;;;;;;14.30;1.83;;;7.50;99.90;;;;;;5070231;28;19964;-72
2023/05/16 01:49:50;;;;;;;15.68;1.92;;;7.50;99.90;;;;;;5068378;28;20041;-72
2023/05/16 01:52:25;;;;;;;21.50;2.22;;;7.80;99.90;;;;;;5068613;28;20060;-72
2023/05/16 01:54:53;;;;;;;20.25;2.53;;;7.50;99.90;;;;;;5069697;28;20041;-72
2023/05/16 01:57:21;;;;;;;13.63;1.80;;;7.50;99.90;;;;;;5068362;28;20047;-72
2023/05/16 01:59:47;;;;;;;22.02;3.00;;;7.80;99.90;;;;;;5069632;28;20080;-72
2023/05/16 02:02:16;;;;;;;11.38;1.67;;;7.50;99.90;;;;;;5064184;28;20156;-72
2023/05/16 02:04:42;;;;;;;15.20;1.95;;;7.60;99.90;;;;;;5068309;28;20106;-72
2023/05/16 02:07:07;;;;;;;14.35;1.67;;;7.60;99.90;;;;;;5069540;28;20506;-72
2023/05/16 02:09:33;;;;;;;24.10;2.47;;;7.50;99.90;;;;;;5062319;28;20044;-72
2023/05/16 02:11:59;;;;;;;20.45;2.20;;;7.60;99.90;;;;;;5067835;28;20086;-72
2023/05/16 02:14:25;;;;;;;16.92;2.33;;;7.60;99.90;;;;;;5068110;28;20076;-73
2023/05/16 02:16:51;;;;;;;16.73;2.65;;;7.60;99.90;;;;;;5062434;28;20485;-70
2023/05/16 02:19:17;;;;;;;17.67;2.70;;;7.60;99.90;;;;;;5068358;28;20121;-71
2023/05/16 02:21:42;;;;;;;14.25;2.10;;;7.60;99.90;;;;;;5065611;28;20564;-71
2023/05/16 02:24:08;;;;;;;19.33;2.58;;;7.60;99.90;;;;;;5066623;28;20048;-72
2023/05/16 02:26:33;;;;;;;13.80;1.77;;;7.50;99.90;;;;;;5069283;28;20075;-73
2023/05/16 02:28:59;;;;;;;18.13;2.58;;;7.50;99.90;;;;;;5061964;28;20388;-71
2023/05/16 02:31:29;;;;;;;14.65;2.45;;;7.50;99.90;;;;;;5068804;28;20071;-72
2023/05/16 02:33:57;;;;;;;17.80;2.22;;;7.50;99.90;;;;;;5068840;28;20055;-72
2023/05/16 02:36:23;;;;;;;12.55;2.17;;;7.60;99.90;;;;;;5069865;28;20060;-72
2023/05/16 02:38:48;;;;;;;14.23;1.70;;;6.90;99.90;;;;;;5068917;28;20041;-73
2023/05/16 02:41:14;;;;;;;26.58;2.10;;;7.30;99.90;;;;;;5065122;28;20047;-71
2023/05/16 02:43:40;;;;;;;15.68;2.20;;;7.30;99.90;;;;;;5065630;28;20039;-72
2023/05/16 02:46:22;;;;;;;19.80;2.85;;;7.30;99.90;;;;;;5060949;28;20131;-72
2023/05/16 02:48:50;;;;;;;14.15;1.88;;;7.20;99.90;;;;;;5068391;28;20384;-71
2023/05/16 02:51:15;;;;;;;14.40;1.88;;;7.20;99.90;;;;;;5069176;28;20483;-72
2023/05/16 02:53:41;;;;;;;10.80;1.98;;;7.10;99.90;;;;;;5069905;28;20047;-71
2023/05/16 02:56:06;;;;;;;13.75;1.88;;;7.10;99.90;;;;;;5068309;28;20037;-71
2023/05/16 02:58:32;;;;;;;12.13;1.88;;;7.00;99.90;;;;;;5060962;28;20650;-71
2023/05/16 03:00:58;;;;;;;13.55;2.08;;;7.00;99.90;;;;;;5050770;28;20411;-73
2023/05/16 03:03:24;;;;;;;14.32;2.13;;;7.30;99.90;;;;;;5068822;28;20048;-72
2023/05/16 03:05:50;;;;;;;12.95;2.28;;;7.00;99.90;;;;;;5069455;28;20043;-72
2023/05/16 03:08:16;;;;;;;14.70;2.55;;;7.00;99.90;;;;;;5069074;28;20141;-72
2023/05/16 03:10:42;;;;;;;18.45;2.22;;;6.80;99.90;;;;;;5067688;28;20075;-72
2023/05/16 03:13:08;;;;;;;14.75;2.00;;;6.80;99.90;;;;;;5059441;28;20048;-71
2023/05/16 03:15:33;;;;;;;13.27;2.85;;;6.80;99.90;;;;;;5069411;28;20067;-72
2023/05/16 03:17:59;;;;;;;14.40;2.20;;;7.10;99.90;;;;;;5067452;28;20056;-72
2023/05/16 03:20:25;;;;;;;17.83;2.33;;;6.70;99.90;;;;;;5059293;28;20055;-71
2023/05/16 03:22:50;;;;;;;20.00;2.88;;;6.70;99.90;;;;;;5069363;28;20119;-73
2023/05/16 03:25:16;;;;;;;18.02;2.10;;;6.70;99.90;;;;;;5067569;28;20045;-74
2023/05/16 03:27:42;;;;;;;19.02;2.00;;;6.60;99.90;;;;;;5067463;28;20170;-76
2023/05/16 03:30:08;;;;;;;12.65;2.00;;;6.70;99.90;;;;;;5062849;28;20462;-77
2023/05/16 03:32:34;;;;;;;11.23;1.75;;;6.60;99.90;;;;;;5067794;28;20055;-76
2023/05/16 03:35:00;;;;;;;14.93;1.77;;;6.60;99.90;;;;;;5060983;28;20119;-73
2023/05/16 03:37:26;;;;;;;17.08;2.33;;;6.60;99.90;;;;;;5069358;28;20055;-74
2023/05/16 03:39:52;;;;;;;13.48;2.25;;;6.60;99.90;;;;;;5066049;28;20119;-73
2023/05/16 03:42:17;;;;;;;14.88;2.08;;;6.70;99.90;;;;;;5068958;28;20148;-72
2023/05/16 03:44:43;;;;;;;17.27;2.53;;;6.70;99.90;;;;;;5069284;28;20045;-74
2023/05/16 03:47:09;;;;;;;17.83;2.35;;;6.70;99.90;;;;;;5068678;28;20067;-72
2023/05/16 03:49:35;;;;;;;14.05;2.38;;;6.70;99.90;;;;;;5067890;28;20051;-71
2023/05/16 03:52:02;;;;;;;11.80;2.03;;;6.70;99.90;;;;;;5065648;28;20060;-72
2023/05/16 03:54:28;;;;;;;20.63;2.42;;;6.70;99.90;;;;;;5061789;28;20449;-72
2023/05/16 03:56:54;;;;;;;17.63;1.95;;;7.00;99.90;;;;;;5067276;28;20037;-72
2023/05/16 03:59:20;;;;;;;18.75;1.92;;;6.70;99.90;;;;;;5067192;28;20048;-70
2023/05/16 04:01:46;;;;;;;13.15;2.50;;;6.90;99.90;;;;;;5068764;28;20106;-73
2023/05/16 04:04:13;;;;;;;11.95;1.50;;;6.80;99.90;;;;;;5060286;28;20044;-75
2023/05/16 04:06:38;;;;;;;19.73;2.10;;;6.70;99.90;;;;;;5068946;28;20040;-72
2023/05/16 04:09:05;;;;;;;14.98;1.92;;;6.80;99.90;;;;;;5063826;28;20226;-75
2023/05/16 04:11:31;;;;;;;15.05;1.92;;;6.80;99.90;;;;;;5068759;28;20063;-75
2023/05/16 04:13:57;;;;;;;19.45;2.40;;;6.80;99.90;;;;;;5068044;28;20115;-74
2023/05/16 04:16:23;;;;;;;17.55;2.00;;;6.80;99.90;;;;;;5070790;28;20090;-75
2023/05/16 04:18:48;;;;;;;15.10;2.58;;;6.80;99.90;;;;;;5072002;28;20044;-76
2023/05/16 04:21:14;;;;;;;19.48;2.35;;;7.70;99.90;;;;;;5072315;28;20122;-77
2023/05/16 04:23:40;;;;;;;10.70;1.73;;;6.80;99.90;;;;;;5071173;28;20052;-75
2023/05/16 04:26:06;;;;;;;17.77;2.05;;;6.80;99.90;;;;;;5063201;28;20044;-76
2023/05/16 04:28:32;;;;;;;12.73;1.70;;;6.80;99.90;;;;;;5072191;28;20105;-76
2023/05/16 04:30:58;;;;;;;14.65;1.80;;;7.30;99.90;;;;;;5072295;28;20070;-74
2023/05/16 04:33:23;;;;;;;12.18;2.08;;;6.80;99.90;;;;;;5071735;28;20373;-74
2023/05/16 04:35:49;;;;;;;15.00;1.98;;;6.80;99.90;;;;;;5072086;28;20044;-76
2023/05/16 04:38:15;;;;;;;9.63;1.63;;;6.80;99.90;;;;;;5071859;28;20036;-73
2023/05/16 04:40:40;;;;;;;13.98;1.77;;;6.80;99.90;;;;;;5069968;28;20049;-73
2023/05/16 04:43:07;;;;;;;14.63;2.00;;;6.80;99.90;;;;;;5070368;28;20044;-72
2023/05/16 04:45:32;;;;;;;14.05;2.15;;;6.80;99.90;;;;;;5071546;28;20119;-71
2023/05/16 04:48:00;;;;;;;15.38;2.13;;;6.80;99.90;;;;;;5062014;28;20186;-71
2023/05/16 04:50:26;;;;;;;13.88;2.30;;;6.80;99.90;;;;;;5071582;28;20427;-72
2023/05/16 04:52:51;;;;;;;16.52;1.95;;;6.80;99.90;;;;;;5071365;28;20052;-70
2023/05/16 04:55:17;;;;;;;20.20;2.63;;;6.80;99.90;;;;;;5067060;28;20049;-71
2023/05/16 04:57:43;;;;;;;10.20;2.13;;;6.90;99.90;;;;;;5064555;28;20040;-71
2023/05/16 05:00:10;;;;;;;15.88;2.30;;;6.90;99.90;;;;;;5070027;28;20059;-71
2023/05/16 05:02:37;;;;;;;13.57;2.10;;;6.90;99.90;;;;;;5070380;28;20079;-73
2023/05/16 05:05:03;;;;;;;20.50;2.70;;;6.90;99.90;;;;;;5069875;28;20127;-71
2023/05/16 05:07:29;;;;;;;12.00;1.80;;;7.00;99.90;;;;;;5066843;28;20070;-70
2023/05/16 05:09:55;;;;;;;15.25;2.50;;;6.90;99.90;;;;;;5061022;28;20032;-72
2023/05/16 05:12:21;;;;;;;15.43;1.95;;;7.20;99.90;;;;;;5071109;28;20044;-71
2023/05/16 05:14:47;;;;;;;18.10;1.80;;;7.00;99.90;;;;;;5071337;28;20055;-75
2023/05/16 05:17:12;;;;;;;16.52;2.80;;;7.10;99.90;;;;;;5069864;28;20060;-72
2023/05/16 05:19:38;;;;;;;14.23;2.25;;;7.10;99.90;;;;;;5070869;28;20044;-74
2023/05/16 05:22:04;;;;;;;10.93;1.70;;;7.20;99.90;;;;;;5070079;28;20100;-71
2023/05/16 05:24:29;;;;;;;16.42;2.22;;;7.30;99.90;;;;;;5064226;28;20072;-69
2023/05/16 05:26:55;;;;;;;11.82;1.88;;;7.40;99.90;;;;;;5063113;28;20103;-73
2023/05/16 05:29:21;;;;;;;17.02;2.25;;;7.50;99.90;;;;;;5071381;28;20044;-73
2023/05/16 05:31:47;;;;;;;13.90;2.00;;;7.60;99.90;;;;;;5060932;28;20797;-72
2023/05/16 05:34:13;;;;;;;16.60;1.95;;;7.70;99.90;;;;;;5071508;28;20052;-76
2023/05/16 05:36:39;;;;;;;10.50;2.00;;;7.80;99.90;;;;;;5070800;28;20067;-73
2023/05/16 05:39:05;;;;;;;12.73;2.38;;;7.90;99.90;;;;;;5068332;28;20414;-73
2023/05/16 05:41:30;;;;;;;12.35;1.88;;;8.00;99.90;;;;;;5063695;28;20510;-71
2023/05/16 05:43:56;;;;;;;9.73;1.52;;;8.20;99.90;;;;;;5069456;28;20029;-75
2023/05/16 05:46:24;;;;;;;15.27;1.80;;;8.30;99.90;;;;;;5060810;28;20484;-75
2023/05/16 05:48:50;;;;;;;11.57;1.92;;;8.40;99.90;;;;;;5070896;28;20040;-73
2023/05/16 05:51:16;;;;;;;9.80;1.88;;;9.10;99.90;;;;;;5062695;28;20037;-74
2023/05/16 05:53:42;;;;;;;11.90;2.38;;;9.10;99.90;;;;;;5069837;28;20052;-74
2023/05/16 05:56:08;;;;;;;19.77;2.15;;;8.60;99.90;;;;;;5062522;28;20036;-73
2023/05/16 05:58:34;;;;;;;18.83;2.08;;;8.80;99.90;;;;;;5070668;28;20051;-72
2023/05/16 06:01:00;;;;;;;9.98;1.60;;;8.90;99.90;;;;;;5070636;28;20044;-74
2023/05/16 06:03:29;;;;;;;14.02;1.80;;;9.70;99.90;;;;;;5062115;28;20037;-73
2023/05/16 06:05:54;;;;;;;15.23;2.22;;;9.10;99.90;;;;;;5069133;28;20055;-75
2023/05/16 06:08:20;;;;;;;11.77;2.17;;;10.00;99.90;;;;;;5060286;28;20050;-76
2023/05/16 06:10:46;;;;;;;11.20;1.75;;;9.40;99.90;;;;;;5062336;28;20094;-73
2023/05/16 06:13:12;;;;;;;15.18;2.20;;;9.50;99.90;;;;;;5069815;28;20063;-74
2023/05/16 06:15:38;;;;;;;12.48;1.23;;;9.80;99.90;;;;;;5070223;28;20076;-73
2023/05/16 06:18:04;;;;;;;10.18;1.92;;;10.50;99.90;;;;;;5070337;28;20091;-75
2023/05/16 06:20:29;;;;;;;7.40;0.95;;;9.90;99.90;;;;;;5070091;28;20132;-72
2023/05/16 06:22:55;;;;;;;8.35;1.52;;;10.30;99.90;;;;;;5069788;28;20117;-72
2023/05/16 06:25:21;;;;;;;5.80;0.82;;;9.90;99.90;;;;;;5069627;28;20049;-71
2023/05/16 06:27:47;;;;;;;6.25;1.13;;;10.00;99.90;;;;;;5059709;28;20119;-74
2023/05/16 06:30:12;;;;;;;6.65;1.15;;;10.00;99.90;;;;;;5068565;28;20123;-73
2023/05/16 06:32:39;;;;;;;4.95;1.00;;;10.00;99.90;;;;;;5068881;28;20045;-73
2023/05/16 06:35:06;;;;;;;8.40;0.98;;;10.40;99.90;;;;;;5064150;28;20044;-73
2023/05/16 06:37:31;;;;;;;6.07;1.10;;;10.20;99.90;;;;;;5068998;28;20041;-73
2023/05/16 06:39:58;;;;;;;5.20;0.88;;;10.30;99.90;;;;;;5067517;28;20107;-73
2023/05/16 06:42:23;;;;;;;7.53;1.00;;;10.30;99.90;;;;;;5062472;28;20055;-72
2023/05/16 06:44:49;;;;;;;7.35;1.02;;;10.70;99.90;;;;;;5069593;28;20711;-72
2023/05/16 06:47:15;;;;;;;4.78;0.70;;;10.40;99.90;;;;;;5069928;28;20052;-72
2023/05/16 06:49:41;;;;;;;7.43;0.77;;;10.80;99.90;;;;;;5069473;28;20112;-73
2023/05/16 06:52:10;;;;;;;4.18;0.73;;;10.80;99.90;;;;;;5069347;28;20048;-73
2023/05/16 06:54:36;;;;;;;11.35;1.67;;;11.30;99.90;;;;;;5070207;28;20104;-73
2023/05/16 06:57:03;;;;;;;18.25;1.25;;;11.10;99.90;;;;;;5069426;28;20510;-72
2023/05/16 06:59:28;;;;;;;8.43;1.33;;;11.20;99.90;;;;;;5069568;28;20050;-71
2023/05/16 07:01:54;;;;;;;8.38;1.30;;;11.40;99.90;;;;;;5069813;28;20403;-74
2023/05/16 07:04:20;;;;;;;8.43;1.10;;;11.40;99.90;;;;;;5061187;28;20041;-73
2023/05/16 07:06:45;;;;;;;6.72;1.20;;;11.80;99.90;;;;;;5069971;28;20055;-74
2023/05/16 07:09:11;;;;;;;7.35;1.55;;;12.00;99.90;;;;;;5069389;28;20041;-72
2023/05/16 07:11:37;;;;;;;10.60;1.83;;;11.70;99.90;;;;;;5069734;28;20869;-73
2023/05/16 07:14:02;;;;;;;9.02;1.48;;;11.80;99.90;;;;;;5062506;28;20414;-73
2023/05/16 07:16:28;;;;;;;13.88;1.85;;;11.90;99.90;;;;;;5067581;28;20056;-73
2023/05/16 07:18:54;;;;;;;10.75;2.38;;;11.90;99.90;;;;;;5069556;28;20048;-73
2023/05/16 07:21:19;;;;;;;8.02;1.40;;;11.90;99.90;;;;;;5068203;28;20158;-73
2023/05/16 07:23:45;;;;;;;10.23;1.52;;;12.00;99.90;;;;;;5069240;28;20506;-72
2023/05/16 07:26:11;;;;;;;20.17;2.22;;;12.00;99.90;;;;;;5069379;28;20726;-74
2023/05/16 07:28:36;;;;;;;9.52;1.60;;;11.90;99.90;;;;;;5068166;28;20087;-73
2023/05/16 07:31:07;;;;;;;9.93;1.40;;;11.70;99.90;;;;;;5064301;28;20037;-72
2023/05/16 07:33:32;;;;;;;9.80;1.73;;;11.60;99.90;;;;;;5058571;28;20475;-72
2023/05/16 07:35:58;;;;;;;9.52;2.00;;;11.80;99.90;;;;;;5069371;28;20043;-75
2023/05/16 07:38:24;;;;;;;8.27;1.70;;;11.90;99.90;;;;;;5063752;28;20854;-72
2023/05/16 07:40:50;;;;;;;9.73;1.30;;;12.20;99.90;;;;;;5067045;28;20049;-71
2023/05/16 07:43:16;;;;;;;10.68;2.03;;;12.50;99.90;;;;;;5062816;28;20036;-69
2023/05/16 07:45:42;;;;;;;12.95;1.48;;;12.70;99.90;;;;;;5067475;28;20076;-70
2023/05/16 07:48:07;;;;;;;11.07;1.40;;;12.90;99.90;;;;;;5069866;28;20495;-72
2023/05/16 07:50:33;;;;;;;12.73;1.50;;;12.80;99.90;;;;;;5073075;28;20135;-72
2023/05/16 07:52:59;;;;;;;17.10;2.53;;;12.50;99.90;;;;;;5072768;28;20090;-72
2023/05/16 07:55:25;;;;;;;10.20;1.42;;;12.50;99.90;;;;;;5072817;28;20044;-71
2023/05/16 07:57:51;;;;;;;11.93;1.95;;;12.50;99.90;;;;;;5072551;28;20033;-73
2023/05/16 08:00:18;;;;;;;12.00;1.90;;;12.70;99.90;;;;;;5072459;28;20048;-73
2023/05/16 08:02:44;;;;;;;11.55;1.45;;;12.90;99.90;;;;;;5073059;28;20041;-74
2023/05/16 08:05:09;;;;;;;9.85;1.67;;;12.90;99.90;;;;;;5073350;28;20423;-71
2023/05/16 08:07:35;;;;;;;13.93;1.70;;;12.60;99.90;;;;;;5073321;28;20388;-71
2023/05/16 08:10:00;;;;;;;9.20;1.80;;;12.60;99.90;;;;;;5073172;28;20418;-76
2023/05/16 08:12:26;;;;;;;10.48;1.25;;;12.70;99.90;;;;;;5067998;28;20114;-72
2023/05/16 08:14:52;;;;;;;11.73;1.50;;;12.80;99.90;;;;;;5073018;28;20434;-75
2023/05/16 08:17:18;;;;;;;10.02;1.25;;;13.30;99.90;;;;;;5070944;28;20096;-76
2023/05/16 08:19:44;;;;;;;8.55;1.38;;;13.10;99.90;;;;;;5065096;28;20066;-79
2023/05/16 08:22:10;;;;;;;14.20;2.70;;;13.40;99.90;;;;;;5073601;28;20068;-72
2023/05/16 08:24:38;;;;;;;9.48;1.27;;;13.70;99.90;;;;;;5072687;28;20048;-74
2023/05/16 08:27:04;;;;;;;10.35;1.40;;;13.90;99.90;;;;;;5073051;28;20045;-77
2023/05/16 08:29:30;;;;;;;11.50;1.55;;;13.90;99.90;;;;;;5073009;28;20098;-75
2023/05/16 08:31:56;;;;;;;9.68;1.73;;;14.20;99.90;;;;;;5072909;28;20043;-74
2023/05/16 08:34:22;;;;;;;9.35;1.55;;;14.10;99.90;;;;;;5072756;28;20430;-72
2023/05/16 08:36:48;;;;;;;8.27;2.20;;;14.10;99.90;;;;;;5072898;28;20040;-72
2023/05/16 08:39:13;;;;;;;11.18;1.63;;;14.20;99.90;;;;;;5066479;28;20124;-73
2023/05/16 08:41:39;;;;;;;9.98;1.33;;;14.40;99.90;;;;;;5068656;28;20055;-74
2023/05/16 08:44:06;;;;;;;14.25;1.67;;;13.90;99.90;;;;;;5071055;28;20499;-74
2023/05/16 08:46:34;;;;;;;9.73;1.35;;;14.20;99.90;;;;;;5072540;28;20037;-72
2023/05/16 08:49:00;;;;;;;14.48;2.92;;;14.30;99.90;;;;;;5072301;28;20499;-73
2023/05/16 08:51:28;;;;;;;12.20;1.42;;;14.20;99.90;;;;;;5072691;28;20037;-74
2023/05/16 08:54:02;;;;;;;14.38;1.88;;;14.20;99.90;;;;;;5072536;28;20036;-72
2023/05/16 08:56:28;;;;;;;9.65;1.52;;;14.40;99.90;;;;;;5072384;28;20039;-74
2023/05/16 08:58:56;;;;;;;7.30;1.02;;;14.60;99.90;;;;;;5071006;28;20459;-73
2023/05/16 09:01:23;;;;;;;10.25;1.50;;;14.40;99.90;;;;;;5061531;28;20052;-73
2023/05/16 09:03:52;;;;;;;9.23;1.50;;;14.10;99.90;;;;;;5072329;28;20041;-71
2023/05/16 09:06:18;;;;;;;11.73;1.60;;;13.80;99.90;;;;;;5072299;28;20044;-73
2023/05/16 09:08:45;;;;;;;12.45;1.73;;;13.50;99.90;;;;;;5066075;28;20066;-77
2023/05/16 09:11:11;;;;;;;12.55;2.28;;;13.80;99.90;;;;;;5067340;28;20067;-72
2023/05/16 09:13:38;;;;;;;11.90;1.60;;;14.00;99.90;;;;;;5071955;28;20040;-73
2023/05/16 09:16:11;;;;;;;10.43;1.58;;;13.50;99.90;;;;;;5071477;28;20060;-73
2023/05/16 09:18:38;;;;;;;8.75;1.40;;;13.70;99.90;;;;;;5071921;28;20128;-75
2023/05/16 09:21:07;;;;;;;6.35;1.33;;;13.70;99.90;;;;;;5072032;28;20096;-72
2023/05/16 09:23:33;;;;;;;11.10;1.60;;;13.90;99.90;;;;;;5071777;28;20047;-74
2023/05/16 09:25:59;;;;;;;9.65;1.55;;;13.90;99.90;;;;;;5071337;28;20048;-70
2023/05/16 09:28:25;;;;;;;9.90;1.30;;;14.20;99.90;;;;;;5071273;28;20093;-72
2023/05/16 09:30:53;;;;;;;10.68;1.48;;;14.90;99.90;;;;;;5063376;28;20129;-69
2023/05/16 09:33:21;;;;;;;11.75;1.63;;;14.60;99.90;;;;;;5071798;28;20087;-77
2023/05/16 09:36:00;;;;;;;8.30;1.27;;;14.30;99.90;;;;;;5066873;28;20040;-71
2023/05/16 09:38:27;;;;;;;11.15;1.98;;;14.30;99.90;;;;;;5068449;28;20170;-68
2023/05/16 09:40:56;;;;;;;13.65;2.05;;;14.10;99.90;;;;;;5065248;28;20044;-70
2023/05/16 09:43:25;;;;;;;11.20;1.58;;;14.30;99.90;;;;;;5071153;28;20037;-68
2023/05/16 09:45:51;;;;;;;10.85;1.52;;;14.60;99.90;;;;;;5071420;28;20037;-71
2023/05/16 09:48:17;;;;;;;15.10;2.40;;;14.90;99.90;;;;;;5071593;28;20383;-75
2023/05/16 09:50:51;;;;;;;12.38;2.30;;;15.30;99.90;;;;;;5070006;28;20052;-76
2023/05/16 09:53:27;;;;;;;7.47;1.17;;;15.20;99.90;;;;;;5062983;28;20036;-75
2023/05/16 09:56:06;;;;;;;7.80;1.35;;;15.30;99.90;;;;;;5070959;28;20045;-73
2023/05/16 09:58:34;;;;;;;7.22;1.13;;;15.60;99.90;;;;;;5064380;28;20044;-76
2023/05/16 10:01:01;;;;;;;11.07;1.70;;;15.60;99.90;;;;;;5070993;28;20446;-74
2023/05/16 10:03:27;;;;;;;7.05;1.08;;;15.80;99.90;;;;;;5063203;28;20048;-77
2023/05/16 10:05:54;;;;;;;9.70;1.33;;;16.00;99.90;;;;;;5063974;28;20073;-75
2023/05/16 10:08:25;;;;;;;9.73;1.67;;;16.00;99.90;;;;;;5069378;28;20052;-74
2023/05/16 10:10:55;;;;;;;8.25;1.50;;;16.20;99.90;;;;;;5070958;28;20043;-71
2023/05/16 10:13:23;;;;;;;7.78;1.42;;;16.20;99.90;;;;;;5061670;28;20037;-72
2023/05/16 10:15:49;;;;;;;12.48;1.42;;;15.40;99.90;;;;;;5070799;28;20079;-73
2023/05/16 10:18:20;;;;;;;12.15;1.77;;;15.00;99.90;;;;;;5070810;28;20123;-72
2023/05/16 10:20:51;;;;;;;9.13;1.40;;;15.10;99.90;;;;;;5063259;28;20506;-72
2023/05/16 10:23:21;;;;;;;9.93;1.15;;;15.30;99.90;;;;;;5070625;28;20044;-72
2023/05/16 10:25:48;;;;;;;7.45;1.30;;;15.10;99.90;;;;;;5062519;28;20171;-72
2023/05/16 10:28:15;;;;;;;10.45;1.50;;;15.40;99.90;;;;;;5070524;28;20506;-72
2023/05/16 10:30:45;;;;;;;8.52;1.70;;;15.50;99.90;;;;;;5067423;28;20037;-73
2023/05/16 10:33:12;;;;;;;10.57;1.70;;;15.40;99.90;;;;;;5064437;28;20048;-72
2023/05/16 10:35:39;;;;;;;7.95;1.27;;;15.10;99.90;;;;;;5069215;28;20041;-71
2023/05/16 10:38:06;;;;;;;6.57;1.15;;;15.20;99.90;;;;;;5070490;28;20045;-77
2023/05/16 10:40:33;;;;;;;8.02;1.52;;;15.70;99.90;;;;;;5067551;28;20052;-70
2023/05/16 10:43:02;;;;;;;7.53;1.45;;;15.70;99.90;;;;;;5061341;28;20057;-73
2023/05/16 10:45:29;;;;;;;10.60;1.27;;;15.80;99.90;;;;;;5070222;28;20052;-70
2023/05/16 10:47:55;;;;;;;10.68;1.27;;;15.90;99.90;;;;;;5070233;28;20495;-73
2023/05/16 10:50:37;;;;;;;8.85;1.02;;;15.50;99.90;;;;;;5070108;28;20036;-71
2023/05/16 10:53:21;;;;;;;8.18;1.20;;;15.80;99.90;;;;;;5069388;28;20823;-72
2023/05/16 10:55:58;;;;;;;11.57;1.60;;;15.60;99.90;;;;;;5070403;28;20044;-73
2023/05/16 10:58:39;;;;;;;7.18;1.10;;;15.50;99.90;;;;;;5062320;28;20402;-71
2023/05/16 11:01:28;;;;;;;10.40;1.20;;;15.60;99.90;;;;;;5068840;28;20551;-72
2023/05/16 11:03:56;;;;;;;8.75;1.58;;;15.90;99.90;;;;;;5070327;28;20124;-71
2023/05/16 11:06:23;;;;;;;8.05;1.10;;;15.60;99.90;;;;;;5070578;28;20045;-74
2023/05/16 11:09:15;;;;;;;13.00;1.27;;;15.50;99.90;;;;;;5070380;28;20091;-71
2023/05/16 11:11:40;;;;;;;10.40;1.80;;;15.20;99.90;;;;;;5057993;28;20052;-72
2023/05/16 11:14:07;;;;;;;7.35;1.52;;;15.70;99.90;;;;;;5066004;28;20060;-72
2023/05/16 11:16:34;;;;;;;6.20;1.23;;;15.80;99.90;;;;;;5070168;28;20059;-73
2023/05/16 11:19:06;;;;;;;8.07;1.20;;;16.20;99.90;;;;;;5070140;28;20048;-71
2023/05/16 11:22:05;;;;;;;12.10;2.13;;;15.80;99.90;;;;;;5069046;28;20052;-73
2023/05/16 11:24:31;;;;;;;9.32;1.52;;;16.00;99.90;;;;;;5073302;28;20052;-72
2023/05/16 11:26:59;;;;;;;10.05;1.88;;;15.60;99.90;;;;;;5064637;28;20048;-72
2023/05/16 11:29:30;;;;;;;11.45;1.63;;;15.70;99.90;;;;;;5068486;28;20151;-73
2023/05/16 11:32:02;;;;;;;8.35;2.05;;;15.50;99.90;;;;;;5065024;28;20082;-72
2023/05/16 11:34:29;;;;;;;7.28;1.58;;;15.60;99.90;;;;;;5072448;28;20123;-71
2023/05/16 11:36:55;;;;;;;13.63;1.70;;;15.60;99.90;;;;;;5073499;28;20036;-72
2023/05/16 11:39:24;;;;;;;11.57;1.60;;;15.40;99.90;;;;;;5073677;28;20131;-72
2023/05/16 11:41:52;;;;;;;11.05;1.85;;;15.30;99.90;;;;;;5073915;28;20139;-72
2023/05/16 11:44:17;;;;;;;12.13;1.70;;;15.10;99.90;;;;;;5072656;28;20040;-72
2023/05/16 11:46:43;;;;;;;9.60;1.50;;;14.60;99.90;;;;;;5068044;28;20055;-74
2023/05/16 11:49:09;;;;;;;9.60;2.00;;;14.90;99.90;;;;;;5073618;28;20306;-72
2023/05/16 11:51:42;;;;;;;7.82;1.90;;;14.90;99.90;;;;;;5073511;28;20710;-72
2023/05/16 11:54:11;;;;;;;12.70;1.98;;;15.20;99.90;;;;;;5071523;28;20135;-72
2023/05/16 11:56:39;;;;;;;10.10;2.17;;;15.50;99.90;;;;;;5061328;28;20076;-76
2023/05/16 11:59:06;;;;;;;10.40;2.33;;;15.50;99.90;;;;;;5072029;28;20048;-72
2023/05/16 12:01:36;;;;;;;11.88;2.20;;;15.10;99.90;;;;;;5065416;28;20484;-74
2023/05/16 12:04:09;;;;;;;12.18;2.28;;;14.70;99.90;;;;;;5070085;28;20052;-73
2023/05/16 12:06:35;;;;;;;13.25;2.22;;;14.40;99.90;;;;;;5073634;28;20076;-72
2023/05/16 12:09:09;;;;;;;12.93;2.13;;;14.20;99.90;;;;;;5071609;28;20115;-71
2023/05/16 12:11:37;;;;;;;8.93;2.00;;;14.40;99.90;;;;;;5065345;28;20048;-73
2023/05/16 12:14:04;;;;;;;8.57;2.00;;;15.00;99.90;;;;;;5073234;28;20054;-73
2023/05/16 12:16:30;;;;;;;7.22;2.05;;;15.20;99.90;;;;;;5072291;28;20056;-72
2023/05/16 12:18:56;;;;;;;11.07;1.77;;;14.80;99.90;;;;;;5072784;28;20565;-73
2023/05/16 12:21:22;;;;;;;8.88;2.35;;;15.10;99.90;;;;;;5073005;28;20059;-73
2023/05/16 12:23:48;;;;;;;6.68;1.80;;;15.20;99.90;;;;;;5072985;28;20076;-73
2023/05/16 12:26:13;;;;;;;10.00;2.13;;;15.30;99.90;;;;;;5069753;28;20045;-72
2023/05/16 12:28:39;;;;;;;10.30;1.95;;;15.30;99.90;;;;;;5064500;28;20037;-72
2023/05/16 12:31:18;;;;;;;8.45;2.45;;;15.60;99.90;;;;;;5073049;28;20376;-71
2023/05/16 12:33:45;;;;;;;9.70;2.17;;;15.90;99.90;;;;;;5072966;28;20147;-74
2023/05/16 12:36:14;;;;;;;8.38;2.28;;;15.80;99.90;;;;;;5071641;28;20448;-73
2023/05/16 12:38:41;;;;;;;8.48;1.95;;;15.60;99.90;;;;;;5072876;28;20109;-72
2023/05/16 12:41:06;;;;;;;13.07;2.35;;;15.50;99.90;;;;;;5064099;28;20059;-73
2023/05/16 12:43:32;;;;;;;14.45;2.47;;;15.30;99.90;;;;;;5071162;28;20049;-72
2023/05/16 12:45:58;;;;;;;12.98;2.47;;;15.20;99.90;;;;;;5072231;28;20039;-73
2023/05/16 12:48:30;;;;;;;7.97;2.38;;;15.30;99.90;;;;;;5062625;28;20374;-71